createdAt,value
2018-01-19T00:00:59.561Z,16.33
2018-01-19T00:03:28.587Z,18.50
2018-01-19T00:05:57.602Z,21.23
2018-01-19T00:08:25.829Z,15.13
2018-01-19T00:10:54.828Z,17.30
2018-01-19T00:13:23.066Z,14.90
2018-01-19T00:15:51.308Z,17.53
2018-01-19T00:18:19.614Z,17.47
2018-01-19T00:20:48.646Z,14.30
2018-01-19T00:23:17.787Z,18.40
2018-01-19T00:25:46.063Z,20.60
2018-01-19T00:28:14.304Z,19.87
2018-01-19T00:30:42.539Z,16.27
2018-01-19T00:33:10.818Z,20.40
2018-01-19T00:35:39.075Z,19.33
2018-01-19T00:38:07.322Z,20.33
2018-01-19T00:40:35.533Z,15.77
2018-01-19T00:43:03.761Z,15.10
2018-01-19T00:45:32.021Z,16.53
2018-01-19T00:48:00.246Z,17.30
2018-01-19T00:50:28.490Z,18.03
2018-01-19T00:52:56.739Z,18.53
2018-01-19T00:55:25.713Z,15.60
2018-01-19T00:57:54.797Z,16.47
2018-01-19T01:00:23.012Z,14.93
2018-01-19T01:02:51.299Z,20.40
2018-01-19T01:05:19.502Z,15.60
2018-01-19T01:07:47.738Z,17.37
2018-01-19T01:10:16.001Z,18.10
2018-01-19T01:12:45.020Z,18.50
2018-01-19T01:15:13.806Z,16.30
2018-01-19T01:17:42.123Z,16.33
2018-01-19T01:20:11.154Z,18.77
2018-01-19T01:22:39.393Z,15.73
2018-01-19T01:25:07.636Z,16.40
2018-01-19T01:27:35.866Z,16.07
2018-01-19T01:30:04.102Z,17.63
2018-01-19T01:32:32.368Z,18.50
2018-01-19T01:35:00.659Z,14.03
2018-01-19T01:37:29.086Z,17.17
2018-01-19T01:39:57.285Z,16.50
2018-01-19T01:42:25.825Z,18.83
2018-01-19T01:44:54.125Z,21.10
2018-01-19T01:47:22.371Z,20.47
2018-01-19T01:49:50.564Z,17.83
2018-01-19T01:52:18.856Z,20.47
2018-01-19T01:54:47.106Z,20.60
2018-01-19T01:57:16.224Z,22.33
2018-01-19T01:59:45.236Z,23.10
2018-01-19T02:02:13.425Z,20.37
2018-01-19T02:04:42.481Z,22.67
2018-01-19T02:07:11.452Z,21.73
2018-01-19T02:09:40.448Z,27.07
2018-01-19T02:12:09.457Z,22.53
2018-01-19T02:14:38.731Z,21.80
2018-01-19T02:17:06.903Z,20.00
2018-01-19T02:19:35.950Z,27.83
2018-01-19T02:22:04.193Z,21.03
2018-01-19T02:24:33.193Z,19.17
2018-01-19T02:27:02.174Z,20.90
2018-01-19T02:29:30.409Z,20.10
2018-01-19T02:31:58.690Z,18.50
2018-01-19T02:34:26.889Z,18.03
2018-01-19T02:36:55.160Z,18.87
2018-01-19T02:39:23.421Z,23.37
2018-01-19T02:41:51.679Z,20.90
2018-01-19T02:44:19.946Z,26.27
2018-01-19T02:46:48.173Z,18.03
2018-01-19T02:49:16.425Z,19.30
2018-01-19T02:51:44.661Z,19.80
2018-01-19T02:54:12.920Z,21.47
2018-01-19T02:56:41.219Z,16.33
2018-01-19T02:59:09.452Z,19.00
2018-01-19T03:01:37.680Z,18.47
2018-01-19T03:04:05.969Z,22.20
2018-01-19T03:06:34.990Z,19.57
2018-01-19T03:09:04.027Z,22.83
2018-01-19T03:11:32.302Z,20.13
2018-01-19T03:14:01.041Z,20.77
2018-01-19T03:16:29.335Z,22.33
2018-01-19T03:18:57.565Z,21.40
2018-01-19T03:21:25.781Z,19.03
2018-01-19T03:23:54.045Z,22.00
2018-01-19T03:26:22.269Z,17.63
2018-01-19T03:28:50.498Z,16.00
2018-01-19T03:31:18.721Z,17.77
2018-01-19T03:33:46.959Z,17.57
2018-01-19T03:36:15.177Z,19.20
2018-01-19T03:38:43.380Z,23.60
2018-01-19T03:41:12.374Z,20.53
2018-01-19T03:43:40.606Z,21.07
2018-01-19T03:46:08.848Z,24.73
2018-01-19T03:48:37.100Z,20.53
2018-01-19T03:51:06.090Z,18.90
2018-01-19T03:53:34.569Z,23.17
2018-01-19T03:56:02.813Z,22.27
2018-01-19T03:58:31.030Z,23.30
2018-01-19T04:00:59.265Z,26.63
2018-01-19T04:03:27.473Z,24.33
2018-01-19T04:05:55.713Z,23.07
2018-01-19T04:08:23.939Z,23.20
2018-01-19T04:10:52.185Z,24.63
2018-01-19T04:13:21.181Z,20.93
2018-01-19T04:15:50.177Z,22.33
2018-01-19T04:18:18.393Z,20.20
2018-01-19T04:20:46.659Z,20.80
2018-01-19T04:23:15.609Z,21.07
2018-01-19T04:25:44.610Z,22.17
2018-01-19T04:28:13.602Z,20.47
2018-01-19T04:30:41.830Z,23.50
2018-01-19T04:33:10.061Z,23.57
2018-01-19T04:35:39.050Z,23.00
2018-01-19T04:38:08.041Z,25.93
2018-01-19T04:40:37.021Z,17.93
2018-01-19T04:43:06.018Z,23.37
2018-01-19T04:45:35.000Z,20.13
2018-01-19T04:48:03.224Z,19.30
2018-01-19T04:50:31.421Z,19.13
2018-01-19T04:52:59.657Z,19.83
2018-01-19T04:55:27.865Z,17.00
2018-01-19T04:57:56.928Z,19.87
2018-01-19T05:00:25.153Z,18.70
2018-01-19T05:02:53.358Z,20.90
2018-01-19T05:05:22.347Z,24.83
2018-01-19T05:07:51.337Z,21.80
2018-01-19T05:10:20.320Z,17.97
2018-01-19T05:12:49.301Z,17.40
2018-01-19T05:15:17.528Z,20.43
2018-01-19T05:17:45.740Z,18.70
2018-01-19T05:20:13.963Z,17.47
2018-01-19T05:22:42.181Z,17.27
2018-01-19T05:25:10.405Z,16.67
2018-01-19T05:27:38.649Z,17.03
2018-01-19T05:30:07.665Z,19.60
2018-01-19T05:32:35.861Z,19.47
2018-01-19T05:35:04.089Z,18.80
2018-01-19T05:37:32.300Z,20.40
2018-01-19T05:40:00.516Z,21.63
2018-01-19T05:42:28.740Z,20.87
2018-01-19T05:44:57.742Z,22.10
2018-01-19T05:47:25.972Z,22.77
2018-01-19T05:49:54.978Z,19.73
2018-01-19T05:52:23.980Z,25.17
2018-01-19T05:54:52.189Z,21.70
2018-01-19T05:57:21.581Z,20.57
2018-01-19T05:59:49.808Z,21.40
2018-01-19T06:02:18.033Z,21.50
2018-01-19T06:04:46.245Z,19.60
2018-01-19T06:07:14.478Z,19.90
2018-01-19T06:09:42.704Z,18.47
2018-01-19T06:12:10.961Z,21.53
2018-01-19T06:14:39.154Z,23.50
2018-01-19T06:17:08.490Z,21.47
2018-01-19T06:19:37.473Z,19.40
2018-01-19T06:22:06.471Z,22.60
2018-01-19T06:24:35.451Z,22.63
2018-01-19T06:27:03.678Z,24.03
2018-01-19T06:29:31.888Z,22.40
2018-01-19T06:32:00.161Z,19.33
2018-01-19T06:34:28.369Z,19.10
2018-01-19T06:36:57.341Z,21.50
2018-01-19T06:39:26.358Z,16.70
2018-01-19T06:41:54.578Z,16.67
2018-01-19T06:44:22.797Z,20.93
2018-01-19T06:46:51.797Z,23.87
2018-01-19T06:49:20.023Z,18.50
2018-01-19T06:51:48.252Z,21.30
2018-01-19T06:54:16.503Z,23.90
2018-01-19T06:56:44.713Z,24.63
2018-01-19T06:59:12.965Z,21.90
2018-01-19T07:01:41.942Z,24.03
2018-01-19T07:04:10.947Z,20.57
2018-01-19T07:06:39.956Z,23.00
2018-01-19T07:09:08.193Z,21.90
2018-01-19T07:11:36.405Z,22.40
2018-01-19T07:14:04.621Z,22.57
2018-01-19T07:16:32.845Z,24.13
2018-01-19T07:19:01.849Z,19.73
2018-01-19T07:21:30.111Z,23.17
2018-01-19T07:23:58.337Z,19.30
2018-01-19T07:26:26.557Z,19.50
2018-01-19T07:28:56.034Z,23.77
2018-01-19T07:31:24.413Z,24.80
2018-01-19T07:33:52.638Z,22.40
2018-01-19T07:36:21.713Z,21.70
2018-01-19T07:38:49.928Z,24.57
2018-01-19T07:41:18.157Z,20.20
2018-01-19T07:43:46.390Z,22.70
2018-01-19T07:46:14.630Z,28.43
2018-01-19T07:48:42.861Z,22.57
2018-01-19T07:51:11.857Z,21.33
2018-01-19T07:53:40.863Z,22.07
2018-01-19T07:56:09.846Z,23.67
2018-01-19T07:58:38.860Z,24.37
2018-01-19T08:01:07.076Z,21.00
2018-01-19T08:03:36.132Z,22.00
2018-01-19T08:06:04.341Z,21.90
2018-01-19T08:08:32.864Z,24.07
2018-01-19T08:11:01.850Z,22.07
2018-01-19T08:13:30.841Z,19.10
2018-01-19T08:15:59.838Z,21.07
2018-01-19T08:18:28.097Z,21.60
2018-01-19T08:20:56.333Z,22.50
2018-01-19T08:23:24.526Z,23.57
2018-01-19T08:25:52.753Z,22.83
2018-01-19T08:28:20.969Z,23.53
2018-01-19T08:30:49.233Z,26.27
2018-01-19T08:33:17.449Z,22.57
2018-01-19T08:35:45.675Z,20.80
2018-01-19T08:38:13.897Z,21.47
2018-01-19T08:40:42.130Z,24.67
2018-01-19T08:43:10.359Z,31.13
2018-01-19T08:45:38.708Z,34.03
2018-01-19T08:48:06.959Z,29.13
2018-01-19T08:50:35.177Z,29.63
2018-01-19T08:53:03.393Z,31.47
2018-01-19T08:55:31.653Z,26.83
2018-01-19T08:58:00.648Z,27.90
2018-01-19T09:00:29.640Z,29.27
2018-01-19T09:02:57.856Z,28.43
2018-01-19T09:05:26.093Z,27.67
2018-01-19T09:07:54.305Z,29.93
2018-01-19T09:10:22.514Z,32.93
2018-01-19T09:12:50.839Z,28.87
2018-01-19T09:15:19.001Z,35.30
2018-01-19T09:17:47.477Z,32.27
2018-01-19T09:20:15.730Z,34.13
2018-01-19T09:22:44.723Z,32.53
2018-01-19T09:25:12.918Z,34.60
2018-01-19T09:27:41.138Z,33.27
2018-01-19T09:30:09.376Z,31.30
2018-01-19T09:32:37.628Z,36.67
2018-01-19T09:35:06.609Z,37.10
2018-01-19T09:37:35.629Z,39.77
2018-01-19T09:40:03.851Z,35.50
2018-01-19T09:42:32.264Z,34.60
2018-01-19T09:45:01.249Z,38.37
2018-01-19T09:47:30.232Z,39.53
2018-01-19T09:49:59.232Z,37.83
2018-01-19T09:52:28.226Z,39.27
2018-01-19T09:54:56.489Z,41.67
2018-01-19T09:57:24.713Z,37.43
2018-01-19T09:59:52.929Z,39.43
2018-01-19T10:02:21.157Z,37.83
2018-01-19T10:04:49.396Z,40.10
2018-01-19T10:07:17.588Z,37.00
2018-01-19T10:09:46.573Z,35.40
2018-01-19T10:12:15.562Z,35.17
2018-01-19T10:14:44.241Z,37.03
2018-01-19T10:17:13.256Z,33.93
2018-01-19T10:19:41.497Z,34.20
2018-01-19T10:22:09.731Z,36.40
2018-01-19T10:24:37.957Z,35.83
2018-01-19T10:27:06.961Z,38.07
2018-01-19T10:29:35.165Z,37.60
2018-01-19T10:32:03.397Z,32.70
2018-01-19T10:34:33.112Z,35.13
2018-01-19T10:37:02.117Z,42.17
2018-01-19T10:39:31.093Z,34.43
2018-01-19T10:42:00.082Z,32.37
2018-01-19T10:44:29.181Z,31.70
2018-01-19T10:46:57.397Z,36.87
2018-01-19T10:49:25.608Z,31.03
2018-01-19T10:51:53.846Z,35.97
2018-01-19T10:54:22.063Z,34.33
2018-01-19T10:56:50.288Z,27.80
2018-01-19T10:59:18.501Z,32.87
2018-01-19T11:01:46.746Z,32.10
2018-01-19T11:04:14.960Z,35.37
2018-01-19T11:06:43.190Z,32.07
2018-01-19T11:09:11.421Z,36.70
2018-01-19T11:11:40.410Z,33.27
2018-01-19T11:14:08.636Z,30.23
2018-01-19T11:16:36.840Z,34.03
2018-01-19T11:19:05.087Z,32.23
2018-01-19T11:21:33.296Z,34.30
2018-01-19T11:24:01.546Z,35.90
2018-01-19T11:26:29.792Z,37.10
2018-01-19T11:28:58.029Z,30.20
2018-01-19T11:31:27.018Z,33.00
2018-01-19T11:33:56.079Z,34.40
2018-01-19T11:36:24.241Z,39.23
2018-01-19T11:38:52.500Z,35.27
2018-01-19T11:41:20.741Z,39.33
2018-01-19T11:43:49.735Z,36.93
2018-01-19T11:46:18.738Z,36.70
2018-01-19T11:48:47.725Z,38.00
2018-01-19T11:51:16.716Z,31.07
2018-01-19T11:53:45.698Z,29.10
2018-01-19T11:56:13.922Z,30.83
2018-01-19T11:58:42.130Z,36.20
2018-01-19T12:01:10.344Z,30.47
2018-01-19T12:03:38.566Z,29.20
2018-01-19T12:06:06.788Z,28.77
2018-01-19T12:08:35.012Z,26.90
2018-01-19T12:11:03.263Z,31.70
2018-01-19T12:13:31.713Z,29.97
2018-01-19T12:16:00.747Z,32.27
2018-01-19T12:18:28.974Z,32.60
2018-01-19T12:20:57.961Z,33.20
2018-01-19T12:23:26.962Z,31.30
2018-01-19T12:25:56.062Z,28.53
2018-01-19T12:28:25.044Z,28.17
2018-01-19T12:30:54.033Z,26.07
2018-01-19T12:33:22.272Z,25.13
2018-01-19T12:35:51.424Z,21.90
2018-01-19T12:38:20.412Z,22.30
2018-01-19T12:40:49.392Z,20.87
2018-01-19T12:43:17.666Z,24.60
2018-01-19T12:45:45.850Z,22.30
2018-01-19T12:48:15.142Z,21.47
2018-01-19T12:50:43.388Z,28.90
2018-01-19T12:53:11.610Z,29.63
2018-01-19T12:55:40.611Z,28.73
2018-01-19T12:58:09.887Z,24.97
2018-01-19T13:00:38.118Z,30.00
2018-01-19T13:03:06.326Z,24.10
2018-01-19T13:05:34.530Z,27.57
2018-01-19T13:08:02.738Z,27.17
2018-01-19T13:10:30.969Z,27.17
2018-01-19T13:12:59.962Z,24.97
2018-01-19T13:15:28.958Z,25.10
2018-01-19T13:17:57.953Z,24.40
2018-01-19T13:20:26.182Z,27.50
2018-01-19T13:22:54.419Z,26.37
2018-01-19T13:25:22.669Z,26.93
2018-01-19T13:27:50.897Z,29.67
2018-01-19T13:30:19.141Z,26.93
2018-01-19T13:32:47.373Z,26.53
2018-01-19T13:35:16.365Z,21.43
2018-01-19T13:37:44.588Z,25.03
2018-01-19T13:40:12.814Z,26.10
2018-01-19T13:42:41.041Z,26.17
2018-01-19T13:45:09.274Z,27.53
2018-01-19T13:47:37.491Z,25.10
2018-01-19T13:50:05.722Z,29.40
2018-01-19T13:52:34.713Z,27.27
2018-01-19T13:55:03.698Z,26.40
2018-01-19T13:57:31.917Z,24.53
2018-01-19T14:00:00.162Z,22.27
2018-01-19T14:02:29.158Z,23.43
2018-01-19T14:04:58.141Z,25.10
2018-01-19T14:07:27.462Z,22.30
2018-01-19T14:09:55.700Z,22.37
2018-01-19T14:12:23.912Z,22.40
2018-01-19T14:14:52.153Z,19.43
2018-01-19T14:17:20.367Z,20.40
2018-01-19T14:19:48.610Z,24.60
2018-01-19T14:22:16.824Z,24.70
2018-01-19T14:24:45.053Z,19.13
2018-01-19T14:27:14.060Z,22.70
2018-01-19T14:29:42.305Z,25.60
2018-01-19T14:32:10.533Z,27.80
2018-01-19T14:34:38.805Z,29.37
2018-01-19T14:37:07.044Z,27.60
2018-01-19T14:39:35.265Z,26.80
2018-01-19T14:42:03.503Z,22.20
2018-01-19T14:44:32.496Z,20.90
2018-01-19T14:47:01.514Z,21.83
2018-01-19T14:49:29.721Z,26.30
2018-01-19T14:51:57.961Z,24.27
2018-01-19T14:54:26.169Z,23.60
2018-01-19T14:56:54.443Z,23.63
2018-01-19T14:59:22.710Z,26.83
2018-01-19T15:01:51.245Z,25.93
2018-01-19T15:04:19.470Z,21.00
2018-01-19T15:06:47.714Z,23.60
2018-01-19T15:09:15.972Z,23.57
2018-01-19T15:11:44.183Z,26.00
2018-01-19T15:14:12.426Z,25.30
2018-01-19T15:16:40.630Z,27.17
2018-01-19T15:19:08.873Z,27.83
2018-01-19T15:21:37.097Z,27.20
2018-01-19T15:24:05.381Z,26.73
2018-01-19T15:26:33.600Z,27.80
2018-01-19T15:29:01.870Z,26.77
2018-01-19T15:31:30.091Z,27.27
2018-01-19T15:33:58.323Z,24.40
2018-01-19T15:36:26.621Z,28.97
2018-01-19T15:38:54.909Z,25.90
2018-01-19T15:41:23.153Z,26.50
2018-01-19T15:43:51.379Z,25.87
2018-01-19T15:46:19.604Z,25.90
2018-01-19T15:48:47.832Z,29.47
2018-01-19T15:51:16.853Z,32.00
2018-01-19T15:53:45.078Z,27.33
2018-01-19T15:56:13.334Z,27.57
2018-01-19T15:58:41.577Z,28.83
2018-01-19T16:01:09.805Z,26.83
2018-01-19T16:03:38.052Z,28.57
2018-01-19T16:06:07.507Z,30.10
2018-01-19T16:08:36.252Z,32.00
2018-01-19T16:11:04.717Z,32.60
2018-01-19T16:13:33.025Z,26.20
2018-01-19T16:16:01.474Z,27.07
2018-01-19T16:18:31.433Z,33.03
2018-01-19T16:20:59.676Z,26.10
2018-01-19T16:23:27.905Z,29.07
2018-01-19T16:25:56.913Z,26.97
2018-01-19T16:28:26.542Z,27.97
2018-01-19T16:30:54.753Z,27.67
2018-01-19T16:33:23.105Z,26.90
2018-01-19T16:35:51.393Z,30.77
2018-01-19T16:38:19.617Z,25.83
2018-01-19T16:40:47.968Z,22.53
2018-01-19T16:43:16.277Z,23.20
2018-01-19T16:45:44.537Z,24.90
2018-01-19T16:48:12.763Z,24.10
2018-01-19T16:50:40.987Z,25.23
2018-01-19T16:53:09.241Z,23.90
2018-01-19T16:55:37.477Z,26.40
2018-01-19T16:58:06.462Z,26.60
2018-01-19T17:00:34.738Z,27.13
2018-01-19T17:03:02.977Z,25.93
2018-01-19T17:05:31.186Z,31.07
2018-01-19T17:07:59.410Z,26.60
2018-01-19T17:10:27.653Z,22.73
2018-01-19T17:12:55.877Z,26.13
2018-01-19T17:15:24.120Z,27.30
2018-01-19T17:17:52.344Z,30.47
2018-01-19T17:20:21.344Z,28.17
2018-01-19T17:22:49.542Z,29.13
2018-01-19T17:25:17.804Z,23.77
2018-01-19T17:27:46.765Z,19.63
2018-01-19T17:30:15.777Z,22.00
2018-01-19T17:32:44.014Z,14.33
2018-01-19T17:35:12.237Z,13.90
2018-01-19T17:37:40.489Z,13.57
2018-01-19T17:40:08.677Z,12.00
2018-01-19T17:42:37.658Z,11.60
2018-01-19T17:45:06.135Z,12.57
2018-01-19T17:47:35.156Z,13.67
2018-01-19T17:50:04.133Z,15.13
2018-01-19T17:52:33.138Z,15.67
2018-01-19T17:55:01.352Z,14.53
2018-01-19T17:57:31.112Z,17.73
2018-01-19T17:59:59.332Z,16.10
2018-01-19T18:02:27.563Z,16.53
2018-01-19T18:04:55.789Z,16.40
2018-01-19T18:07:24.015Z,16.40
2018-01-19T18:09:52.246Z,17.83
2018-01-19T18:12:20.485Z,17.07
2018-01-19T18:14:48.722Z,15.80
2018-01-19T18:17:17.744Z,16.57
2018-01-19T18:19:45.996Z,18.60
2018-01-19T18:22:15.059Z,16.43
2018-01-19T18:24:43.301Z,20.00
2018-01-19T18:27:11.533Z,16.00
2018-01-19T18:29:40.830Z,17.77
2018-01-19T18:32:09.849Z,19.27
2018-01-19T18:34:38.212Z,18.37
2018-01-19T18:37:06.393Z,17.87
2018-01-19T18:39:34.651Z,17.03
2018-01-19T18:42:02.861Z,18.90
2018-01-19T18:44:32.066Z,18.53
2018-01-19T18:47:01.158Z,15.77
2018-01-19T18:49:29.381Z,17.73
2018-01-19T18:51:57.671Z,35.63
2018-01-19T18:54:25.864Z,53.63
2018-01-19T18:56:54.107Z,31.03
2018-01-19T18:59:22.326Z,17.50
2018-01-19T19:01:50.709Z,17.20
2018-01-19T19:04:18.930Z,19.90
2018-01-19T19:06:47.222Z,19.50
2018-01-19T19:09:16.209Z,20.10
2018-01-19T19:11:45.988Z,22.70
2018-01-19T19:14:14.303Z,22.80
2018-01-19T19:16:42.633Z,25.77
2018-01-19T19:19:10.858Z,26.37
2018-01-19T19:24:39.984Z,21.20
2018-01-19T19:27:08.237Z,21.80
2018-01-19T19:29:37.222Z,22.07
2018-01-19T19:32:06.265Z,24.13
2018-01-19T19:34:34.539Z,24.37
2018-01-19T19:37:02.785Z,23.63
2018-01-19T19:39:31.929Z,23.70
2018-01-19T19:42:00.238Z,23.20
2018-01-19T19:44:29.234Z,23.77
2018-01-19T19:46:57.465Z,24.17
2018-01-19T19:49:26.484Z,21.03
2018-01-19T19:51:54.807Z,26.20
2018-01-19T19:54:23.090Z,22.87
2018-01-19T19:56:51.355Z,24.10
2018-01-19T19:59:20.436Z,26.03
2018-01-19T20:01:48.702Z,23.73
2018-01-19T20:04:16.986Z,26.67
2018-01-19T20:06:45.510Z,24.07
2018-01-19T20:09:13.752Z,26.20
2018-01-19T20:11:42.016Z,27.17
2018-01-19T20:14:10.730Z,28.23
2018-01-19T20:16:38.958Z,25.37
2018-01-19T20:19:07.977Z,26.70
2018-01-19T20:21:36.214Z,24.80
2018-01-19T20:24:05.245Z,22.10
2018-01-19T20:26:33.499Z,22.80
2018-01-19T20:29:01.733Z,25.13
2018-01-19T20:31:29.961Z,21.80
2018-01-19T20:33:58.994Z,21.77
2018-01-19T20:36:27.263Z,22.73
2018-01-19T20:38:55.497Z,20.87
2018-01-19T20:41:23.803Z,19.63
2018-01-19T20:43:52.797Z,17.17
2018-01-19T20:46:21.354Z,16.90
2018-01-19T20:48:51.417Z,21.07
2018-01-19T20:51:19.648Z,21.57
2018-01-19T20:53:48.644Z,21.93
2018-01-19T20:56:17.140Z,24.53
2018-01-19T20:58:45.391Z,23.77
2018-01-19T21:01:14.389Z,24.80
2018-01-19T21:03:43.376Z,25.47
2018-01-19T21:06:11.796Z,26.20
2018-01-19T21:08:40.749Z,20.10
2018-01-19T21:11:08.992Z,23.80
2018-01-19T21:13:37.235Z,24.40
2018-01-19T21:16:05.467Z,27.47
2018-01-19T21:18:33.705Z,26.33
2018-01-19T21:21:01.941Z,24.43
2018-01-19T21:23:30.165Z,25.73
2018-01-19T21:25:58.853Z,22.73
2018-01-19T21:28:27.163Z,25.30
2018-01-19T21:30:56.280Z,28.97
2018-01-19T21:33:24.541Z,24.20
2018-01-19T21:35:53.683Z,24.00
2018-01-19T21:38:21.907Z,20.30
2018-01-19T21:40:50.944Z,20.07
2018-01-19T21:43:19.149Z,20.83
2018-01-19T21:45:47.381Z,22.10
2018-01-19T21:48:15.642Z,21.17
2018-01-19T21:50:43.890Z,22.30
2018-01-19T21:53:12.144Z,24.70
2018-01-19T21:55:40.367Z,21.07
2018-01-19T21:58:08.590Z,17.63
2018-01-19T22:00:36.841Z,18.27
2018-01-19T22:03:05.093Z,16.93
2018-01-19T22:05:33.346Z,21.83
2018-01-19T22:08:02.338Z,18.43
2018-01-19T22:10:31.333Z,16.57
2018-01-19T22:12:59.573Z,16.60
2018-01-19T22:15:27.821Z,18.50
2018-01-19T22:17:56.042Z,18.63
2018-01-19T22:20:24.273Z,20.50
2018-01-19T22:22:52.505Z,19.90
2018-01-19T22:25:20.781Z,18.83
2018-01-19T22:27:49.756Z,20.83
2018-01-19T22:30:17.989Z,20.77
2018-01-19T22:32:46.243Z,21.27
2018-01-19T22:35:14.480Z,24.73
2018-01-19T22:37:42.749Z,24.57
2018-01-19T22:40:10.954Z,22.10
2018-01-19T22:42:39.272Z,24.97
2018-01-19T22:45:08.194Z,24.50
2018-01-19T22:47:36.444Z,24.73
2018-01-19T22:50:04.640Z,22.90
2018-01-19T22:52:32.871Z,25.77
2018-01-19T22:55:01.097Z,22.07
2018-01-19T22:57:29.333Z,32.43
2018-01-19T22:59:58.409Z,28.10
2018-01-19T23:02:26.633Z,26.27
2018-01-19T23:04:54.869Z,25.23
2018-01-19T23:07:23.131Z,24.23
2018-01-19T23:09:51.381Z,25.20
2018-01-19T23:12:20.360Z,28.00
2018-01-19T23:14:49.349Z,31.17
2018-01-19T23:17:18.353Z,28.60
2018-01-19T23:19:46.583Z,26.03
2018-01-19T23:22:14.817Z,23.77
2018-01-19T23:24:43.098Z,26.60
2018-01-19T23:27:11.329Z,30.30
2018-01-19T23:29:39.553Z,27.80
2018-01-19T23:32:07.783Z,21.73
2018-01-19T23:34:36.045Z,21.73
2018-01-19T23:37:04.281Z,23.23
2018-01-19T23:39:32.502Z,23.50
2018-01-19T23:42:00.745Z,22.30
2018-01-19T23:44:29.808Z,23.13
2018-01-19T23:46:58.077Z,23.93
2018-01-19T23:49:26.393Z,21.13
2018-01-19T23:51:54.670Z,22.70
2018-01-19T23:54:22.911Z,26.77
2018-01-19T23:56:51.137Z,21.83
2018-01-19T23:59:19.391Z,23.03
